Time;durP1;ratioP1;P1;durP2;ratioP2;P2;SDS_P1;SDS_P2;PMS_P1;PMS_P2;Temp;Humidity;BMP_temperature;BMP_pressure;BME280_temperature;BME280_humidity;BME280_pressure;Samples;Min_cycle;Max_cycle;Signal;HPM_P1;HPM_P2
2021/10/31 00:00:24;;;;;;;1.10;1.10;;;;;;;;;;7333037;19;154123;-16
2021/10/31 00:02:56;;;;;;;;;;;;;;;;;;7333291;19;153524;-17
2021/10/31 09:29:52;;;;;;;0.40;0.40;;;;;;;;;;7367742;19;132611;-13
2021/10/31 09:32:33;;;;;;;0.60;0.40;;;;;;;;;;7361445;19;152509;-15
2021/10/31 09:35:11;;;;;;;0.70;0.40;;;;;;;;;;7365324;19;161952;-16
2021/10/31 09:37:45;;;;;;;2.15;0.70;;;;;;;;;;7361486;19;162373;-14
2021/10/31 09:40:16;;;;;;;2.58;0.50;;;;;;;;;;7360624;19;154020;-13
2021/10/31 09:42:49;;;;;;;0.30;0.30;;;;;;;;;;7366924;19;154182;-12
2021/10/31 09:45:24;;;;;;;2.03;0.50;;;;;;;;;;7365432;19;161860;-16
2021/10/31 09:47:57;;;;;;;1.08;0.40;;;;;;;;;;7367175;19;162347;-15
2021/10/31 09:50:30;;;;;;;0.30;0.30;;;;;;;;;;7363840;19;153868;-14
2021/10/31 09:53:03;;;;;;;0.55;0.40;;;;;;;;;;7366729;19;153588;-15
2021/10/31 09:55:34;;;;;;;1.25;0.50;;;;;;;;;;7365780;19;161796;-13
2021/10/31 09:58:12;;;;;;;1.17;0.30;;;;;;;;;;7364460;19;162380;-14
2021/10/31 10:00:48;;;;;;;0.77;0.50;;;;;;;;;;7365326;19;154091;-14
2021/10/31 10:03:34;;;;;;;0.40;0.40;;;;;;;;;;7364777;19;153674;-13
2021/10/31 10:06:15;;;;;;;0.85;0.57;;;;;;;;;;7366828;19;161839;-14
2021/10/31 10:09:02;;;;;;;0.50;0.50;;;;;;;;;;7366978;19;162826;-14
2021/10/31 10:11:36;;;;;;;1.95;0.95;;;;;;;;;;7366276;19;154147;-13
2021/10/31 10:14:13;;;;;;;1.65;0.95;;;;;;;;;;7367318;19;153523;-14
2021/10/31 10:16:47;;;;;;;1.20;1.10;;;;;;;;;;7363582;19;161885;-13
2021/10/31 10:19:23;;;;;;;1.65;1.55;;;;;;;;;;7361400;19;162655;-15
2021/10/31 10:21:57;;;;;;;1.63;1.15;;;;;;;;;;7363215;19;153635;-15
2021/10/31 10:24:29;;;;;;;0.98;0.93;;;;;;;;;;7362496;19;153499;-15
2021/10/31 10:27:03;;;;;;;0.85;0.85;;;;;;;;;;7361458;19;162057;-14
2021/10/31 10:29:38;;;;;;;1.08;0.80;;;;;;;;;;7345986;19;162382;-13
2021/10/31 10:32:15;;;;;;;0.90;0.90;;;;;;;;;;7334561;19;154100;-15
2021/10/31 10:34:49;;;;;;;0.80;0.80;;;;;;;;;;7334429;19;153537;-13
2021/10/31 10:37:24;;;;;;;1.00;1.00;;;;;;;;;;7332684;19;162048;-15
2021/10/31 10:39:58;;;;;;;1.15;0.80;;;;;;;;;;7331687;19;162495;-15
2021/10/31 10:42:31;;;;;;;0.90;0.90;;;;;;;;;;7334393;19;153981;-13
2021/10/31 10:45:05;;;;;;;1.48;0.90;;;;;;;;;;7333848;19;153707;-14
2021/10/31 10:47:43;;;;;;;1.02;1.00;;;;;;;;;;7333487;19;161808;-12
2021/10/31 10:50:17;;;;;;;1.00;0.93;;;;;;;;;;7332187;19;162340;-14
2021/10/31 10:52:49;;;;;;;0.88;0.88;;;;;;;;;;7334317;19;153899;-13
2021/10/31 10:55:23;;;;;;;1.33;1.10;;;;;;;;;;7334023;19;153603;-12
2021/10/31 10:57:57;;;;;;;1.20;1.10;;;;;;;;;;7333718;19;161795;-13
2021/10/31 11:00:31;;;;;;;1.30;1.05;;;;;;;;;;7333234;19;162357;-12
2021/10/31 11:03:06;;;;;;;0.98;0.98;;;;;;;;;;7333687;19;154040;-14
2021/10/31 11:05:40;;;;;;;1.35;1.20;;;;;;;;;;7333446;19;153468;-18
2021/10/31 11:08:12;;;;;;;0.85;0.85;;;;;;;;;;7332208;19;161925;-14
2021/10/31 11:10:47;;;;;;;1.20;1.10;;;;;;;;;;7332957;19;162506;-13
2021/10/31 11:13:18;;;;;;;1.27;1.17;;;;;;;;;;7333361;19;153954;-14
2021/10/31 11:15:50;;;;;;;1.25;1.00;;;;;;;;;;7333294;19;153476;-14
2021/10/31 11:18:24;;;;;;;0.90;0.90;;;;;;;;;;7332615;19;161826;-14
2021/10/31 11:20:55;;;;;;;1.13;0.90;;;;;;;;;;7332610;19;162413;-13
2021/10/31 11:23:27;;;;;;;1.25;1.10;;;;;;;;;;7332900;19;153959;-13
2021/10/31 11:26:05;;;;;;;1.10;1.02;;;;;;;;;;7331662;19;153448;-15
2021/10/31 11:28:36;;;;;;;1.00;1.00;;;;;;;;;;7331132;19;162302;-13
2021/10/31 11:31:08;;;;;;;1.10;1.00;;;;;;;;;;7332450;19;162363;-14
2021/10/31 11:33:43;;;;;;;1.27;1.02;;;;;;;;;;7332905;19;154170;-14
2021/10/31 11:36:14;;;;;;;1.40;1.30;;;;;;;;;;7332708;19;153551;-12
2021/10/31 11:38:46;;;;;;;1.33;1.17;;;;;;;;;;7331731;19;161842;-13
2021/10/31 11:41:18;;;;;;;1.30;1.20;;;;;;;;;;7329790;19;162373;-16
2021/10/31 11:43:53;;;;;;;1.20;1.10;;;;;;;;;;7332726;19;154044;-14
2021/10/31 11:46:39;;;;;;;0.90;0.90;;;;;;;;;;7332467;19;153610;-14
2021/10/31 11:49:13;;;;;;;1.20;1.10;;;;;;;;;;7332155;19;161788;-12
2021/10/31 11:51:47;;;;;;;1.20;1.10;;;;;;;;;;7331926;19;162516;-14
2021/10/31 11:54:20;;;;;;;1.52;1.38;;;;;;;;;;7332141;19;153962;-15
2021/10/31 11:56:55;;;;;;;1.30;1.20;;;;;;;;;;7331899;19;153527;-15
2021/10/31 11:59:26;;;;;;;1.52;1.30;;;;;;;;;;7330803;19;161804;-14
2021/10/31 12:02:00;;;;;;;1.90;1.40;;;;;;;;;;7331644;19;162700;-13
2021/10/31 12:05:14;;;;;;;2.05;1.40;;;;;;;;;;7331601;19;153913;-15
2021/10/31 12:07:48;;;;;;;1.90;1.58;;;;;;;;;;7331672;19;153534;-13
2021/10/31 12:10:30;;;;;;;1.67;1.30;;;;;;;;;;7331736;19;161814;-14
2021/10/31 12:13:12;;;;;;;1.60;1.50;;;;;;;;;;7331506;19;162581;-15
2021/10/31 12:16:03;;;;;;;1.67;1.47;;;;;;;;;;7331838;19;153849;-14
2021/10/31 12:18:46;;;;;;;1.40;1.30;;;;;;;;;;7331675;19;153404;-15
2021/10/31 12:21:25;;;;;;;1.77;1.42;;;;;;;;;;7328268;19;161787;-16
2021/10/31 12:23:59;;;;;;;1.20;1.10;;;;;;;;;;7331092;19;163185;-14
2021/10/31 12:26:48;;;;;;;1.70;1.30;;;;;;;;;;7331423;19;154207;-13
2021/10/31 12:29:19;;;;;;;;;;;;;;;;;;7329459;19;153554;-14
2021/10/31 12:31:57;;;;;;;1.65;1.10;;;;;;;;;;7330815;19;162156;-14
2021/10/31 12:34:37;;;;;;;1.20;1.10;;;;;;;;;;7330866;19;162494;-16
2021/10/31 12:37:27;;;;;;;1.17;1.08;;;;;;;;;;7331055;19;154381;-14
2021/10/31 12:40:16;;;;;;;2.22;1.20;;;;;;;;;;7328704;19;153486;-15
2021/10/31 12:42:54;;;;;;;1.58;1.05;;;;;;;;;;7330598;19;161822;-14
2021/10/31 12:45:27;;;;;;;1.20;1.02;;;;;;;;;;7330485;19;162414;-13
2021/10/31 12:48:10;;;;;;;1.45;0.90;;;;;;;;;;7329686;19;153943;-15
2021/10/31 12:50:49;;;;;;;1.10;1.00;;;;;;;;;;7330718;19;153495;-16
2021/10/31 12:53:22;;;;;;;1.10;1.00;;;;;;;;;;7329353;19;161739;-16
2021/10/31 12:55:55;;;;;;;1.17;1.08;;;;;;;;;;7330200;19;162826;-16
2021/10/31 12:58:26;;;;;;;0.85;0.82;;;;;;;;;;7330481;19;153724;-13
2021/10/31 13:00:58;;;;;;;0.90;0.80;;;;;;;;;;7328414;19;153485;-16
2021/10/31 13:03:29;;;;;;;1.65;0.93;;;;;;;;;;7329419;19;162010;-17
2021/10/31 13:06:01;;;;;;;1.10;0.90;;;;;;;;;;7330000;19;162380;-13
2021/10/31 13:08:35;;;;;;;1.40;0.95;;;;;;;;;;7330172;19;153917;-14
2021/10/31 13:11:06;;;;;;;1.25;0.95;;;;;;;;;;7329888;19;153917;-12
2021/10/31 13:13:37;;;;;;;1.13;1.00;;;;;;;;;;7328329;19;161841;-14
2021/10/31 13:16:09;;;;;;;1.05;0.93;;;;;;;;;;7328394;19;162816;-13
2021/10/31 13:18:41;;;;;;;0.85;0.70;;;;;;;;;;7329635;19;154240;-13
2021/10/31 13:21:14;;;;;;;1.17;0.93;;;;;;;;;;7327411;19;153575;-14
2021/10/31 13:23:48;;;;;;;;;;;;;;;;;;7328874;19;161572;-14
2021/10/31 13:26:19;;;;;;;1.00;0.88;;;;;;;;;;7329004;19;162546;-14
2021/10/31 13:28:52;;;;;;;0.73;0.73;;;;;;;;;;7327314;19;153911;-15
2021/10/31 13:31:25;;;;;;;1.77;1.10;;;;;;;;;;7329113;19;153732;-15
2021/10/31 13:34:00;;;;;;;;;;;;;;;;;;7329199;19;161771;-13
2021/10/31 13:36:33;;;;;;;0.85;0.70;;;;;;;;;;7328415;19;162570;-15
2021/10/31 13:39:08;;;;;;;0.60;0.60;;;;;;;;;;7328814;19;153901;-15
2021/10/31 13:41:49;;;;;;;1.45;0.90;;;;;;;;;;7326623;19;153524;-15
2021/10/31 13:44:23;;;;;;;0.90;0.70;;;;;;;;;;7328242;19;161902;-14
2021/10/31 13:47:06;;;;;;;0.73;0.70;;;;;;;;;;7327851;19;162353;-16
2021/10/31 13:49:44;;;;;;;0.98;0.80;;;;;;;;;;7328048;19;155137;-16
2021/10/31 13:52:17;;;;;;;0.80;0.80;;;;;;;;;;7331540;19;153497;-14
2021/10/31 13:54:54;;;;;;;0.73;0.60;;;;;;;;;;7330483;19;161788;-14
2021/10/31 13:57:28;;;;;;;0.70;0.70;;;;;;;;;;7326563;19;162351;-16
2021/10/31 14:00:00;;;;;;;1.17;0.68;;;;;;;;;;7325996;19;154051;-13
2021/10/31 14:02:41;;;;;;;1.27;0.90;;;;;;;;;;7328932;19;153491;-14
2021/10/31 14:05:17;;;;;;;4.53;0.90;;;;;;;;;;7328720;19;161819;-13
2021/10/31 14:07:52;;;;;;;3.58;0.88;;;;;;;;;;7330723;19;162343;-13
2021/10/31 14:10:34;;;;;;;3.28;0.90;;;;;;;;;;7334242;19;154258;-13
2021/10/31 14:13:08;;;;;;;4.73;0.80;;;;;;;;;;7334136;19;153735;-12
2021/10/31 14:15:40;;;;;;;3.80;1.00;;;;;;;;;;7333212;19;161967;-13
2021/10/31 14:18:14;;;;;;;0.57;0.57;;;;;;;;;;7333348;19;162523;-14
2021/10/31 14:20:48;;;;;;;4.30;0.85;;;;;;;;;;7332994;19;153985;-15
2021/10/31 14:23:28;;;;;;;0.52;0.50;;;;;;;;;;7333358;19;153556;-14
2021/10/31 14:26:06;;;;;;;1.08;0.70;;;;;;;;;;7332859;19;161901;-13
2021/10/31 14:28:42;;;;;;;3.03;0.80;;;;;;;;;;7331396;19;162335;-14
2021/10/31 14:31:16;;;;;;;0.90;0.55;;;;;;;;;;7333172;19;154244;-13
2021/10/31 14:33:59;;;;;;;1.98;0.63;;;;;;;;;;7332063;19;153561;-13
2021/10/31 14:36:33;;;;;;;1.80;0.80;;;;;;;;;;7336769;19;161494;-14
2021/10/31 14:39:08;;;;;;;0.88;0.50;;;;;;;;;;7332508;19;162396;-15
2021/10/31 14:41:45;;;;;;;1.95;0.70;;;;;;;;;;7335085;19;154086;-13
2021/10/31 14:44:17;;;;;;;1.63;0.60;;;;;;;;;;7335987;19;153801;-15
2021/10/31 14:46:51;;;;;;;2.43;0.60;;;;;;;;;;7335293;19;162925;-14
2021/10/31 14:49:27;;;;;;;1.08;0.63;;;;;;;;;;7334625;19;162552;-15
2021/10/31 14:52:00;;;;;;;1.13;0.80;;;;;;;;;;7334731;19;154012;-14
2021/10/31 14:54:33;;;;;;;0.50;0.40;;;;;;;;;;7335626;19;153579;-13
2021/10/31 14:57:10;;;;;;;0.82;0.60;;;;;;;;;;7335360;19;161784;-15
2021/10/31 14:59:48;;;;;;;1.67;0.50;;;;;;;;;;7335085;19;162665;-15
2021/10/31 15:02:27;;;;;;;0.90;0.60;;;;;;;;;;7332192;19;153950;-13
2021/10/31 15:05:00;;;;;;;1.35;0.50;;;;;;;;;;7335830;19;153518;-15
2021/10/31 15:07:33;;;;;;;2.90;0.70;;;;;;;;;;7332164;19;161948;-20
2021/10/31 15:10:08;;;;;;;0.60;0.50;;;;;;;;;;7332929;19;162481;-16
2021/10/31 15:12:43;;;;;;;0.40;0.40;;;;;;;;;;7335565;19;154240;-12
2021/10/31 15:15:15;;;;;;;1.60;0.65;;;;;;;;;;7334590;19;153669;-13
2021/10/31 15:17:51;;;;;;;0.63;0.50;;;;;;;;;;7334583;19;161810;-14
2021/10/31 15:20:22;;;;;;;0.40;0.40;;;;;;;;;;7332627;19;162366;-15
2021/10/31 15:22:55;;;;;;;0.68;0.40;;;;;;;;;;7332883;19;154218;-17
2021/10/31 15:25:27;;;;;;;0.52;0.50;;;;;;;;;;7335152;19;153999;-17
2021/10/31 15:28:01;;;;;;;0.50;0.50;;;;;;;;;;7331725;19;162214;-15
2021/10/31 15:30:32;;;;;;;0.40;0.40;;;;;;;;;;7335038;19;162641;-16
2021/10/31 15:33:04;;;;;;;0.40;0.40;;;;;;;;;;7334820;19;154321;-16
2021/10/31 15:35:36;;;;;;;0.45;0.45;;;;;;;;;;7333981;19;153743;-14
2021/10/31 15:38:07;;;;;;;0.50;0.50;;;;;;;;;;7332426;19;162329;-17
2021/10/31 15:40:39;;;;;;;0.60;0.60;;;;;;;;;;7334292;19;162382;-15
2021/10/31 15:43:13;;;;;;;0.55;0.55;;;;;;;;;;7331904;19;154058;-16
2021/10/31 15:45:44;;;;;;;0.43;0.40;;;;;;;;;;7334473;19;153612;-17
2021/10/31 15:48:16;;;;;;;1.15;0.60;;;;;;;;;;7334093;19;162112;-13
2021/10/31 15:50:47;;;;;;;0.50;0.50;;;;;;;;;;7333965;19;162325;-12
2021/10/31 15:53:18;;;;;;;0.65;0.60;;;;;;;;;;7331539;19;153953;-14
2021/10/31 15:55:50;;;;;;;0.50;0.50;;;;;;;;;;7330986;19;153463;-15
2021/10/31 15:58:26;;;;;;;0.45;0.45;;;;;;;;;;7333458;19;162017;-14
2021/10/31 16:00:58;;;;;;;0.90;0.50;;;;;;;;;;7333797;19;162056;-14
2021/10/31 16:03:31;;;;;;;0.32;0.32;;;;;;;;;;7331131;19;154675;-13
2021/10/31 16:06:03;;;;;;;0.50;0.50;;;;;;;;;;7332576;19;153655;-13
2021/10/31 16:08:35;;;;;;;0.40;0.40;;;;;;;;;;7332800;19;161836;-15
2021/10/31 16:11:07;;;;;;;0.35;0.35;;;;;;;;;;7332851;19;162526;-13
2021/10/31 16:13:41;;;;;;;0.60;0.40;;;;;;;;;;7332893;19;154095;-16
2021/10/31 16:16:14;;;;;;;0.90;0.40;;;;;;;;;;7330715;19;153619;-13
2021/10/31 16:18:46;;;;;;;0.55;0.50;;;;;;;;;;7332043;19;161871;-12
2021/10/31 16:21:18;;;;;;;0.47;0.47;;;;;;;;;;7332000;19;164741;-16
2021/10/31 16:23:49;;;;;;;0.60;0.50;;;;;;;;;;7330004;19;153984;-13
2021/10/31 16:26:20;;;;;;;0.40;0.40;;;;;;;;;;7333139;19;153510;-17
2021/10/31 16:28:54;;;;;;;0.30;0.30;;;;;;;;;;7329350;19;161928;-13
2021/10/31 16:31:25;;;;;;;0.47;0.40;;;;;;;;;;7332741;19;162387;-13
2021/10/31 16:33:56;;;;;;;0.98;0.30;;;;;;;;;;7329460;19;153942;-13
2021/10/31 16:36:32;;;;;;;0.50;0.50;;;;;;;;;;4806247;19;10155834;-15
2021/10/31 16:39:12;;;;;;;1.68;0.62;;;;;;;;;;2564605;19;10135358;-13
2021/10/31 16:42:06;;;;;;;1.02;0.67;;;;;;;;;;340442;19;10138922;-13
2021/10/31 16:44:40;;;;;;;2.92;0.60;;;;;;;;;;7002685;19;2157950;-16
2021/10/31 16:47:11;;;;;;;1.02;0.73;;;;;;;;;;7241135;19;153475;-13
2021/10/31 16:49:43;;;;;;;2.03;0.70;;;;;;;;;;7330989;19;161821;-12
2021/10/31 16:52:14;;;;;;;0.70;0.70;;;;;;;;;;7330888;19;162619;-14
2021/10/31 16:54:47;;;;;;;1.05;0.95;;;;;;;;;;7329175;19;153926;-12
2021/10/31 16:57:18;;;;;;;2.08;0.77;;;;;;;;;;7328930;19;153678;-15
2021/10/31 16:59:52;;;;;;;1.80;0.70;;;;;;;;;;7328659;19;161860;-14
2021/10/31 17:02:23;;;;;;;1.08;0.80;;;;;;;;;;7328045;19;162385;-12
2021/10/31 17:04:55;;;;;;;1.48;0.90;;;;;;;;;;7328788;19;154038;-13
2021/10/31 17:07:39;;;;;;;0.70;0.70;;;;;;;;;;7328427;19;153829;-14
2021/10/31 17:10:22;;;;;;;1.00;0.60;;;;;;;;;;7327139;19;161825;-15
2021/10/31 17:13:14;;;;;;;1.27;1.00;;;;;;;;;;7327520;19;162491;-12
2021/10/31 17:15:48;;;;;;;0.98;0.90;;;;;;;;;;7328427;19;154312;-13
2021/10/31 17:18:19;;;;;;;1.55;1.20;;;;;;;;;;7331289;19;153521;-14
2021/10/31 17:20:51;;;;;;;1.98;1.83;;;;;;;;;;7327931;19;161846;-13
2021/10/31 17:23:22;;;;;;;1.83;1.58;;;;;;;;;;7330355;19;162572;-15
2021/10/31 17:25:53;;;;;;;2.58;1.38;;;;;;;;;;7329141;19;153953;-13
2021/10/31 17:28:25;;;;;;;1.58;1.10;;;;;;;;;;7329258;19;153668;-14
2021/10/31 17:30:59;;;;;;;2.80;1.77;;;;;;;;;;7325512;19;162522;-14
2021/10/31 17:33:31;;;;;;;3.10;2.72;;;;;;;;;;7330053;19;162382;-13
2021/10/31 17:36:02;;;;;;;4.80;3.08;;;;;;;;;;7328825;19;154114;-15
2021/10/31 17:38:33;;;;;;;3.55;2.50;;;;;;;;;;7328999;19;153839;-14
2021/10/31 17:41:05;;;;;;;2.50;2.30;;;;;;;;;;7335842;19;161792;-15
2021/10/31 17:43:37;;;;;;;2.55;2.20;;;;;;;;;;7336382;19;162385;-15
2021/10/31 17:46:11;;;;;;;3.15;2.28;;;;;;;;;;7337347;19;153964;-14
2021/10/31 17:48:42;;;;;;;2.38;2.15;;;;;;;;;;7336597;19;153479;-16
2021/10/31 17:51:14;;;;;;;3.35;1.80;;;;;;;;;;7336809;19;161854;-14
2021/10/31 17:53:45;;;;;;;2.20;1.80;;;;;;;;;;7338061;19;162463;-13
2021/10/31 17:56:16;;;;;;;2.58;2.20;;;;;;;;;;7334523;19;154229;-14
2021/10/31 17:58:48;;;;;;;2.08;1.80;;;;;;;;;;7338204;19;153630;-15
2021/10/31 18:01:24;;;;;;;2.05;1.85;;;;;;;;;;7332456;19;162022;-14
2021/10/31 18:03:56;;;;;;;2.90;2.25;;;;;;;;;;7333901;19;162449;-14
2021/10/31 18:06:27;;;;;;;5.82;4.38;;;;;;;;;;7332771;19;154008;-14
2021/10/31 18:08:58;;;;;;;5.97;5.10;;;;;;;;;;7333629;19;153831;-15
2021/10/31 18:11:29;;;;;;;4.65;4.13;;;;;;;;;;7334307;19;161789;-15
2021/10/31 18:14:01;;;;;;;5.55;4.53;;;;;;;;;;7337428;19;162492;-16
2021/10/31 18:16:41;;;;;;;4.32;3.73;;;;;;;;;;5342176;19;10159506;-14
2021/10/31 18:19:14;;;;;;;4.90;3.63;;;;;;;;;;20;126294;10162700;-16
2021/10/31 18:21:45;;;;;;;4.95;4.10;;;;;;;;;;7334832;19;162295;-15
2021/10/31 18:24:16;;;;;;;4.75;3.95;;;;;;;;;;7336074;19;162432;-16
2021/10/31 18:26:48;;;;;;;5.10;4.60;;;;;;;;;;7337810;19;154622;-16
2021/10/31 18:29:19;;;;;;;4.60;4.17;;;;;;;;;;7332852;19;153508;-13
2021/10/31 18:31:54;;;;;;;5.32;3.63;;;;;;;;;;7333428;19;162051;-16
2021/10/31 18:34:25;;;;;;;4.40;4.00;;;;;;;;;;7334571;19;162329;-13
2021/10/31 18:37:04;;;;;;;5.25;3.70;;;;;;;;;;7334662;19;154336;-14
2021/10/31 18:39:39;;;;;;;4.03;3.53;;;;;;;;;;7335093;19;153693;-13
2021/10/31 18:42:12;;;;;;;3.80;3.38;;;;;;;;;;7333468;19;162030;-15
2021/10/31 18:44:44;;;;;;;4.32;3.65;;;;;;;;;;7332771;19;162594;-15
2021/10/31 18:47:18;;;;;;;3.90;3.50;;;;;;;;;;7336031;19;154069;-14
2021/10/31 18:49:50;;;;;;;5.05;3.22;;;;;;;;;;7335080;19;153837;-14
2021/10/31 18:52:21;;;;;;;3.90;3.28;;;;;;;;;;7331381;19;161967;-14
2021/10/31 18:54:53;;;;;;;5.03;3.33;;;;;;;;;;7330840;19;162319;-14
2021/10/31 18:57:25;;;;;;;3.58;3.28;;;;;;;;;;7329802;19;154157;-16
2021/10/31 18:59:56;;;;;;;4.28;3.28;;;;;;;;;;7332062;19;153373;-17
2021/10/31 19:02:31;;;;;;;3.67;3.28;;;;;;;;;;7332254;19;161813;-14
2021/10/31 19:05:02;;;;;;;2.80;2.50;;;;;;;;;;7330179;19;162399;-16
2021/10/31 19:07:35;;;;;;;3.50;3.05;;;;;;;;;;7331998;19;154397;-13
2021/10/31 19:10:07;;;;;;;3.70;2.72;;;;;;;;;;7332361;19;153567;-14
2021/10/31 19:12:39;;;;;;;2.42;2.22;;;;;;;;;;7331849;19;161819;-14
2021/10/31 19:15:12;;;;;;;3.65;3.00;;;;;;;;;;7335335;19;162593;-13
2021/10/31 19:17:46;;;;;;;3.10;2.67;;;;;;;;;;7332126;19;153963;-13
2021/10/31 19:20:20;;;;;;;2.60;2.40;;;;;;;;;;7330607;19;153823;-14
2021/10/31 19:22:52;;;;;;;3.03;2.65;;;;;;;;;;7331455;19;162111;-14
2021/10/31 19:25:27;;;;;;;2.45;2.25;;;;;;;;;;7329584;19;162375;-16
2021/10/31 19:27:58;;;;;;;2.28;2.17;;;;;;;;;;7331026;19;153985;-13
2021/10/31 19:30:29;;;;;;;2.55;2.30;;;;;;;;;;7331292;19;153762;-16
2021/10/31 19:33:03;;;;;;;2.35;2.15;;;;;;;;;;7330956;19;161934;-13
2021/10/31 19:35:34;;;;;;;2.28;2.08;;;;;;;;;;7331145;19;162451;-19
2021/10/31 19:38:05;;;;;;;2.90;2.47;;;;;;;;;;7331344;19;153955;-12
2021/10/31 19:40:37;;;;;;;2.42;2.20;;;;;;;;;;7331274;19;153525;-13
2021/10/31 19:43:08;;;;;;;2.55;2.35;;;;;;;;;;7331145;19;162008;-14
2021/10/31 19:45:39;;;;;;;2.38;2.17;;;;;;;;;;7329233;19;162520;-13
2021/10/31 19:48:13;;;;;;;2.30;2.10;;;;;;;;;;7331594;19;154143;-16
2021/10/31 19:50:44;;;;;;;1.90;1.80;;;;;;;;;;7331540;19;153745;-16
2021/10/31 19:53:26;;;;;;;2.35;2.08;;;;;;;;;;7330964;19;161905;-15
2021/10/31 19:56:01;;;;;;;2.17;1.98;;;;;;;;;;7330763;19;163583;-15
2021/10/31 19:58:33;;;;;;;1.70;1.60;;;;;;;;;;7331098;19;154007;-17
2021/10/31 20:01:04;;;;;;;1.98;1.83;;;;;;;;;;7330997;19;153545;-13
2021/10/31 20:03:38;;;;;;;1.80;1.70;;;;;;;;;;7328243;19;162920;-15
2021/10/31 20:06:10;;;;;;;1.70;1.60;;;;;;;;;;7328110;19;162543;-13
2021/10/31 20:08:44;;;;;;;1.83;1.73;;;;;;;;;;7330632;19;154283;-12
2021/10/31 20:11:16;;;;;;;1.73;1.50;;;;;;;;;;7330694;19;153485;-15
2021/10/31 20:13:48;;;;;;;1.80;1.70;;;;;;;;;;7331105;19;161955;-13
2021/10/31 20:16:20;;;;;;;1.45;1.33;;;;;;;;;;7329881;19;162610;-14
2021/10/31 20:18:53;;;;;;;2.88;1.83;;;;;;;;;;7330215;19;155066;-12
2021/10/31 20:21:25;;;;;;;1.70;1.60;;;;;;;;;;7330291;19;153499;-13
2021/10/31 20:23:56;;;;;;;1.77;1.67;;;;;;;;;;7328471;19;162053;-13
2021/10/31 20:26:27;;;;;;;1.73;1.55;;;;;;;;;;7327387;19;162569;-14
2021/10/31 20:28:59;;;;;;;1.58;1.48;;;;;;;;;;7327672;19;154093;-16
2021/10/31 20:31:30;;;;;;;2.45;1.60;;;;;;;;;;7329684;19;153566;-13
2021/10/31 20:34:04;;;;;;;1.35;1.25;;;;;;;;;;7329383;19;161975;-13
2021/10/31 20:36:36;;;;;;;1.35;1.25;;;;;;;;;;7329175;19;162489;-14
2021/10/31 20:39:10;;;;;;;1.60;1.50;;;;;;;;;;7329687;19;154096;-14
2021/10/31 20:41:42;;;;;;;1.60;1.50;;;;;;;;;;7329272;19;154032;-13
2021/10/31 20:44:13;;;;;;;1.65;1.55;;;;;;;;;;7328971;19;161821;-16
2021/10/31 20:46:45;;;;;;;0.90;0.90;;;;;;;;;;7326240;19;162531;-16
2021/10/31 20:49:18;;;;;;;1.60;1.50;;;;;;;;;;7328102;19;154006;-14
2021/10/31 20:51:50;;;;;;;1.52;1.42;;;;;;;;;;7329012;19;153501;-13
2021/10/31 20:54:24;;;;;;;1.45;1.35;;;;;;;;;;7328764;19;161959;-15
2021/10/31 20:56:56;;;;;;;1.20;1.10;;;;;;;;;;7328568;19;162599;-15
2021/10/31 20:59:32;;;;;;;1.70;1.10;;;;;;;;;;7328705;19;153929;-14
2021/10/31 21:02:04;;;;;;;1.30;1.20;;;;;;;;;;7328144;19;153558;-15
2021/10/31 21:04:38;;;;;;;2.63;1.30;;;;;;;;;;7328294;19;161980;-14
2021/10/31 21:07:11;;;;;;;1.55;1.40;;;;;;;;;;7323132;19;162333;-15
2021/10/31 21:09:42;;;;;;;1.90;1.50;;;;;;;;;;7325232;19;153941;-13
2021/10/31 21:12:14;;;;;;;1.92;1.17;;;;;;;;;;7332445;19;153616;-15
2021/10/31 21:14:46;;;;;;;1.60;1.23;;;;;;;;;;7328949;19;161813;-13
2021/10/31 21:17:17;;;;;;;1.45;1.30;;;;;;;;;;7328120;19;162368;-15
2021/10/31 21:19:51;;;;;;;1.08;1.08;;;;;;;;;;7328986;19;153936;-14
2021/10/31 21:22:22;;;;;;;1.00;1.00;;;;;;;;;;7333110;19;153630;-14
2021/10/31 21:24:55;;;;;;;1.58;1.20;;;;;;;;;;7327918;19;162128;-17
2021/10/31 21:27:26;;;;;;;;;;;;;;;;;;7325531;19;162540;-15
2021/10/31 21:29:57;;;;;;;1.02;1.02;;;;;;;;;;7328439;19;154135;-13
2021/10/31 21:32:29;;;;;;;1.20;1.10;;;;;;;;;;7332253;19;153582;-13
2021/10/31 21:35:02;;;;;;;1.00;0.88;;;;;;;;;;7327283;19;161994;-13
2021/10/31 21:37:34;;;;;;;1.45;1.33;;;;;;;;;;7327351;19;162344;-13
2021/10/31 21:40:08;;;;;;;1.30;1.20;;;;;;;;;;7327901;19;154106;-14
2021/10/31 21:42:40;;;;;;;1.48;1.30;;;;;;;;;;7330760;19;153497;-16
2021/10/31 21:45:11;;;;;;;1.05;1.05;;;;;;;;;;7331954;19;161958;-12
2021/10/31 21:47:42;;;;;;;1.00;1.00;;;;;;;;;;7324798;19;162361;-13
2021/10/31 21:50:17;;;;;;;1.05;1.00;;;;;;;;;;7327410;19;153986;-15
2021/10/31 21:52:49;;;;;;;1.08;1.08;;;;;;;;;;7328462;19;153810;-15
2021/10/31 21:55:20;;;;;;;0.93;0.93;;;;;;;;;;7329407;19;161812;-14
2021/10/31 21:57:52;;;;;;;0.98;0.98;;;;;;;;;;7327109;19;162386;-13
2021/10/31 22:00:27;;;;;;;1.08;1.08;;;;;;;;;;7327431;19;154007;-13
2021/10/31 22:02:58;;;;;;;0.90;0.88;;;;;;;;;;7328528;19;153441;-15
2021/10/31 22:05:33;;;;;;;0.77;0.77;;;;;;;;;;7327109;19;161794;-15
2021/10/31 22:08:04;;;;;;;0.80;0.80;;;;;;;;;;7327216;19;162628;-15
2021/10/31 22:10:35;;;;;;;1.20;1.00;;;;;;;;;;7326632;19;154080;-16
2021/10/31 22:13:06;;;;;;;1.10;1.00;;;;;;;;;;7327415;19;153546;-16
2021/10/31 22:15:39;;;;;;;1.08;0.82;;;;;;;;;;7330385;19;161781;-16
2021/10/31 22:18:10;;;;;;;1.80;0.82;;;;;;;;;;7328842;19;162515;-15
2021/10/31 22:20:44;;;;;;;1.00;1.00;;;;;;;;;;7327586;19;154307;-14
2021/10/31 22:23:15;;;;;;;0.93;0.85;;;;;;;;;;7327428;19;153539;-15
2021/10/31 22:25:46;;;;;;;1.42;0.93;;;;;;;;;;7332219;19;161774;-16
2021/10/31 22:28:18;;;;;;;1.02;0.98;;;;;;;;;;7334904;19;162387;-14
2021/10/31 22:30:49;;;;;;;0.95;0.95;;;;;;;;;;7338303;19;155330;-13
2021/10/31 22:33:20;;;;;;;1.08;0.95;;;;;;;;;;7337822;19;154299;-16
2021/10/31 22:35:54;;;;;;;0.93;0.93;;;;;;;;;;7337445;19;161954;-14
2021/10/31 22:38:26;;;;;;;1.00;1.00;;;;;;;;;;7333162;19;162361;-14
2021/10/31 22:40:57;;;;;;;0.88;0.88;;;;;;;;;;7337422;19;154003;-14
2021/10/31 22:43:28;;;;;;;0.70;0.70;;;;;;;;;;7338068;19;153537;-15
2021/10/31 22:45:59;;;;;;;0.98;0.90;;;;;;;;;;7336115;19;162426;-12
2021/10/31 22:48:31;;;;;;;1.33;1.10;;;;;;;;;;7332270;19;162409;-14
2021/10/31 22:51:05;;;;;;;0.77;0.77;;;;;;;;;;7337670;19;154190;-15
2021/10/31 22:53:36;;;;;;;1.40;0.80;;;;;;;;;;7337218;19;153533;-14
2021/10/31 22:56:07;;;;;;;1.17;0.70;;;;;;;;;;7336893;19;161824;-14
2021/10/31 22:58:39;;;;;;;2.25;1.10;;;;;;;;;;7337044;19;162299;-14
2021/10/31 23:01:13;;;;;;;0.98;0.80;;;;;;;;;;7336263;19;153984;-16
2021/10/31 23:03:46;;;;;;;1.33;0.90;;;;;;;;;;7337186;19;153458;-17
2021/10/31 23:06:22;;;;;;;1.20;1.10;;;;;;;;;;7336506;19;161846;-15
2021/10/31 23:08:56;;;;;;;0.80;0.80;;;;;;;;;;7336017;19;162411;-15
2021/10/31 23:11:28;;;;;;;0.88;0.88;;;;;;;;;;7335301;19;154033;-14
2021/10/31 23:13:59;;;;;;;1.27;1.00;;;;;;;;;;7335986;19;153649;-15
2021/10/31 23:16:31;;;;;;;1.67;0.90;;;;;;;;;;7336043;19;161961;-14
2021/10/31 23:19:02;;;;;;;2.35;0.85;;;;;;;;;;7336619;19;162364;-13
2021/10/31 23:21:36;;;;;;;1.15;0.90;;;;;;;;;;7336466;19;153989;-14
2021/10/31 23:24:08;;;;;;;1.00;0.98;;;;;;;;;;7336688;19;153779;-14
2021/10/31 23:26:40;;;;;;;0.80;0.80;;;;;;;;;;7336066;19;161764;-16
2021/10/31 23:29:11;;;;;;;2.22;0.95;;;;;;;;;;7333843;19;162635;-15
2021/10/31 23:31:42;;;;;;;1.13;0.95;;;;;;;;;;7335923;19;154001;-14
2021/10/31 23:34:14;;;;;;;1.05;0.98;;;;;;;;;;7336137;19;153801;-15
2021/10/31 23:36:48;;;;;;;0.80;0.80;;;;;;;;;;7335783;19;161872;-15
2021/10/31 23:39:19;;;;;;;1.15;1.00;;;;;;;;;;7335945;19;162649;-16
2021/10/31 23:41:50;;;;;;;1.00;0.80;;;;;;;;;;7336170;19;154017;-13
2021/10/31 23:44:21;;;;;;;0.70;0.70;;;;;;;;;;7335642;19;153562;-14
2021/10/31 23:46:53;;;;;;;0.82;0.77;;;;;;;;;;7335923;19;161955;-15
2021/10/31 23:49:24;;;;;;;0.80;0.77;;;;;;;;;;7334774;19;162520;-17
2021/10/31 23:51:57;;;;;;;0.80;0.80;;;;;;;;;;7335718;19;153970;-13
2021/10/31 23:54:29;;;;;;;0.93;0.93;;;;;;;;;;7335912;19;153459;-17
2021/10/31 23:57:00;;;;;;;0.65;0.65;;;;;;;;;;7334865;19;162057;-16
2021/10/31 23:59:31;;;;;;;0.70;0.70;;;;;;;;;;7334758;19;162578;-15
